createdAt,value
2019-01-15T00:01:41.840Z,97386.20
2019-01-15T00:05:42.869Z,97383.45
2019-01-15T00:09:43.865Z,97398.34
2019-01-15T00:13:44.910Z,97405.88
2019-01-15T00:17:45.936Z,97406.09
2019-01-15T00:21:47.006Z,97412.53
2019-01-15T00:25:48.023Z,97410.36
2019-01-15T00:29:50.544Z,97423.16
2019-01-15T00:33:51.558Z,97422.45
2019-01-15T00:37:52.584Z,97427.44
2019-01-15T00:41:54.078Z,97430.47
2019-01-15T00:45:55.240Z,97430.47
2019-01-15T00:49:56.228Z,97464.22
2019-01-15T00:53:57.268Z,97435.13
2019-01-15T00:57:58.240Z,97448.59
2019-01-15T01:01:59.292Z,97448.59
2019-01-15T01:06:00.267Z,97457.33
2019-01-15T01:10:01.836Z,97463.31
2019-01-15T01:14:03.513Z,97463.23
2019-01-15T01:18:05.181Z,97441.33
2019-01-15T01:22:07.208Z,97477.59
2019-01-15T01:26:08.257Z,97477.59
2019-01-15T01:30:15.728Z,97474.34
2019-01-15T01:34:18.082Z,97474.34
2019-01-15T01:38:20.555Z,97488.30
2019-01-15T01:42:21.590Z,97492.70
2019-01-15T01:46:22.564Z,97495.22
2019-01-15T01:50:23.643Z,97504.30
2019-01-15T01:54:24.814Z,97504.88
2019-01-15T01:58:26.366Z,97521.80
2019-01-15T02:02:27.861Z,97521.80
2019-01-15T02:06:29.533Z,97530.12
2019-01-15T02:10:31.588Z,97515.98
2019-01-15T02:14:32.557Z,97530.22
2019-01-15T02:18:34.012Z,97532.19
2019-01-15T02:22:35.079Z,97515.63
2019-01-15T02:26:36.054Z,97520.19
2019-01-15T02:30:37.091Z,97526.19
2019-01-15T02:34:38.097Z,97527.18
2019-01-15T02:38:39.625Z,97528.56
2019-01-15T02:42:46.453Z,97535.59
2019-01-15T02:46:43.480Z,97548.81
2019-01-15T02:50:44.447Z,97548.81
2019-01-15T02:54:45.500Z,97554.79
2019-01-15T02:58:46.995Z,97551.98
2019-01-15T03:02:48.111Z,97558.70
2019-01-15T03:06:50.176Z,97564.59
2019-01-15T03:10:51.229Z,97568.84
2019-01-15T03:14:53.274Z,97574.38
2019-01-15T03:18:54.315Z,97580.20
2019-01-15T03:22:56.259Z,97583.92
2019-01-15T03:26:57.313Z,97577.40
2019-01-15T03:30:58.513Z,97586.65
2019-01-15T03:35:00.519Z,97580.16
2019-01-15T03:39:02.542Z,97592.39
2019-01-15T03:43:05.050Z,97595.95
2019-01-15T03:47:06.025Z,97595.95
2019-01-15T03:51:07.672Z,97607.53
2019-01-15T03:55:08.731Z,97608.02
2019-01-15T03:59:09.967Z,97612.41
2019-01-15T04:03:10.934Z,97619.95
2019-01-15T04:07:12.684Z,97626.52
2019-01-15T04:11:13.700Z,97625.73
2019-01-15T04:15:14.846Z,97627.72
2019-01-15T04:19:16.406Z,97634.09
2019-01-15T04:23:18.005Z,97632.10
2019-01-15T04:27:19.145Z,97637.25
2019-01-15T04:31:20.251Z,97635.20
2019-01-15T04:35:21.597Z,97636.83
2019-01-15T04:39:22.950Z,97642.80
2019-01-15T04:43:24.511Z,97654.06
2019-01-15T04:47:26.734Z,97660.28
2019-01-15T04:51:28.854Z,97655.23
2019-01-15T04:55:29.966Z,97655.91
2019-01-15T04:59:31.501Z,97659.11
2019-01-15T05:03:32.529Z,97661.12
2019-01-15T05:07:33.565Z,97665.34
2019-01-15T05:11:34.592Z,97673.55
2019-01-15T05:15:35.625Z,97682.41
2019-01-15T05:19:36.701Z,97682.41
2019-01-15T05:23:37.721Z,97694.93
2019-01-15T05:27:38.825Z,97695.73
2019-01-15T05:31:39.872Z,97695.77
2019-01-15T05:35:40.891Z,97700.42
2019-01-15T05:39:41.896Z,97701.38
2019-01-15T05:43:42.956Z,97711.38
2019-01-15T05:47:44.685Z,97711.44
2019-01-15T05:51:46.430Z,97712.08
2019-01-15T05:55:47.386Z,97723.63
2019-01-15T05:59:48.421Z,97718.54
2019-01-15T06:03:49.433Z,97728.52
2019-01-15T06:07:51.708Z,97737.86
2019-01-15T06:11:52.704Z,97733.06
2019-01-15T06:15:53.789Z,97740.91
2019-01-15T06:19:55.269Z,97756.83
2019-01-15T06:23:56.282Z,97762.74
2019-01-15T06:27:57.254Z,97762.91
2019-01-15T06:31:58.220Z,97761.80
2019-01-15T06:35:59.176Z,97773.00
2019-01-15T06:40:01.733Z,97774.53
2019-01-15T06:44:02.742Z,97773.42
2019-01-15T06:48:04.040Z,97784.23
2019-01-15T06:52:07.212Z,97795.91
2019-01-15T06:56:08.347Z,97799.03
2019-01-15T07:00:14.605Z,97807.90
2019-01-15T07:04:16.032Z,97809.27
2019-01-15T07:08:17.299Z,97818.95
2019-01-15T07:12:18.830Z,97811.53
2019-01-15T07:16:20.770Z,97811.59
2019-01-15T07:20:21.948Z,97825.20
2019-01-15T07:24:23.203Z,97828.58
2019-01-15T07:28:24.990Z,97837.98
2019-01-15T07:32:26.343Z,97837.97
2019-01-15T07:36:27.781Z,97846.56
2019-01-15T07:40:28.974Z,97849.11
2019-01-15T07:44:31.332Z,97858.38
2019-01-15T07:48:32.413Z,97857.13
2019-01-15T07:52:37.955Z,97866.20
2019-01-15T07:56:39.596Z,97869.17
2019-01-15T08:00:41.218Z,97870.53
2019-01-15T08:04:42.499Z,97883.31
2019-01-15T08:08:44.191Z,97892.20
2019-01-15T08:12:45.469Z,97903.95
2019-01-15T08:16:47.062Z,97901.95
2019-01-15T08:20:48.288Z,97903.89
2019-01-15T08:24:49.604Z,97898.84
2019-01-15T08:28:52.456Z,97908.83
2019-01-15T08:32:54.667Z,97915.03
2019-01-15T08:36:56.144Z,97918.35
2019-01-15T08:40:57.227Z,97925.48
2019-01-15T08:44:59.474Z,97918.20
2019-01-15T08:49:00.694Z,97928.81
2019-01-15T08:53:02.645Z,97931.88
2019-01-15T08:57:03.794Z,97947.48
2019-01-15T09:01:05.844Z,97937.87
2019-01-15T09:05:06.943Z,97938.59
2019-01-15T09:09:09.519Z,97951.55
2019-01-15T09:13:10.599Z,97948.49
2019-01-15T09:17:11.564Z,97950.63
2019-01-15T09:21:12.644Z,97948.45
2019-01-15T09:25:13.706Z,97962.75
2019-01-15T09:29:15.949Z,97965.65
2019-01-15T09:33:17.015Z,97976.56
2019-01-15T09:37:18.224Z,97975.81
2019-01-15T09:41:19.209Z,97974.85
2019-01-15T09:45:22.053Z,97975.44
2019-01-15T09:49:23.054Z,97983.70
2019-01-15T09:53:24.094Z,97987.14
2019-01-15T09:57:25.136Z,97987.14
2019-01-15T10:01:26.289Z,97992.59
2019-01-15T10:05:27.305Z,97992.98
2019-01-15T10:09:28.484Z,97991.21
2019-01-15T10:13:29.524Z,97991.35
2019-01-15T10:17:30.605Z,97997.59
2019-01-15T10:21:31.675Z,97997.47
2019-01-15T10:25:34.096Z,97985.27
2019-01-15T10:29:35.250Z,97980.91
2019-01-15T10:33:46.160Z,97982.55
2019-01-15T10:37:47.261Z,97984.72
2019-01-15T10:41:48.276Z,97989.80
2019-01-15T10:45:49.304Z,97990.18
2019-01-15T10:49:50.415Z,97993.20
2019-01-15T10:53:51.424Z,97989.61
2019-01-15T10:57:52.420Z,97986.80
2019-01-15T11:01:53.365Z,97980.49
2019-01-15T11:05:56.189Z,97976.05
2019-01-15T11:09:57.235Z,97975.80
2019-01-15T11:13:58.486Z,97972.64
2019-01-15T11:17:59.850Z,97970.96
2019-01-15T11:22:02.805Z,97970.59
2019-01-15T11:26:04.150Z,97971.93
2019-01-15T11:30:06.875Z,97977.84
2019-01-15T11:34:14.265Z,97981.67
2019-01-15T11:38:15.610Z,97988.30
2019-01-15T11:42:18.468Z,97994.14
2019-01-15T11:46:20.081Z,97998.50
2019-01-15T11:50:21.262Z,98001.95
2019-01-15T11:54:22.451Z,97998.71
2019-01-15T11:58:28.373Z,98007.94
2019-01-15T12:02:36.200Z,98009.08
2019-01-15T12:06:55.129Z,98012.60
2019-01-15T12:11:15.451Z,98004.17
2019-01-15T12:15:30.322Z,98005.94
2019-01-15T12:19:55.540Z,98019.28
2019-01-15T12:24:14.413Z,98020.37
2019-01-15T12:28:40.565Z,98021.37
2019-01-15T12:33:10.995Z,98024.20
2019-01-15T12:37:29.760Z,98013.63
2019-01-15T12:41:57.230Z,98025.34
2019-01-15T12:46:20.200Z,98025.34
2019-01-15T12:50:42.816Z,98027.71
2019-01-15T12:55:14.860Z,98026.73
2019-01-15T12:59:53.055Z,98031.81
2019-01-15T13:04:07.010Z,98038.38
2019-01-15T13:08:25.880Z,98041.64
2019-01-15T13:12:58.574Z,98051.78
2019-01-15T13:17:18.575Z,98053.16
2019-01-15T13:21:44.726Z,98056.69
2019-01-15T13:26:07.781Z,98060.59
2019-01-15T13:30:46.009Z,98061.36
2019-01-15T13:35:04.574Z,98063.13
2019-01-15T13:39:31.223Z,98055.17
2019-01-15T13:43:47.131Z,98057.48
2019-01-15T13:48:04.451Z,98059.62
2019-01-15T13:52:27.739Z,98053.89
2019-01-15T13:56:46.396Z,98058.53
2019-01-15T14:00:57.593Z,98066.91
2019-01-15T14:05:20.148Z,98073.02
2019-01-15T14:09:42.908Z,98085.30
2019-01-15T14:14:03.208Z,98081.51
2019-01-15T14:18:23.205Z,98084.72
2019-01-15T14:22:43.411Z,98086.02
2019-01-15T14:27:01.987Z,98090.61
2019-01-15T14:31:20.637Z,98095.42
2019-01-15T14:35:38.690Z,98095.42
2019-01-15T14:39:58.585Z,98099.97
2019-01-15T14:44:17.357Z,98104.79
2019-01-15T14:48:36.640Z,98108.30
2019-01-15T14:53:09.327Z,98113.16
2019-01-15T14:57:28.103Z,98110.56
2019-01-15T15:01:46.837Z,98102.30
2019-01-15T15:06:05.965Z,98106.00
2019-01-15T15:10:26.035Z,98096.06
2019-01-15T15:14:53.906Z,98100.31
2019-01-15T15:19:14.132Z,98102.38
2019-01-15T15:23:34.220Z,98102.06
2019-01-15T15:27:52.806Z,98113.48
2019-01-15T15:32:18.745Z,98103.92
2019-01-15T15:36:43.944Z,98098.08
2019-01-15T15:41:09.577Z,98112.45
2019-01-15T15:45:29.460Z,98105.23
2019-01-15T15:49:58.774Z,98099.08
2019-01-15T15:54:17.440Z,98111.42
2019-01-15T15:58:40.317Z,98107.52
2019-01-15T16:03:03.070Z,98106.86
2019-01-15T16:07:38.225Z,98105.94
2019-01-15T16:12:13.217Z,98104.44
2019-01-15T16:16:28.556Z,98106.27
2019-01-15T16:20:38.621Z,98106.99
2019-01-15T16:25:01.583Z,98106.80
2019-01-15T16:29:24.290Z,98105.22
2019-01-15T16:33:47.521Z,98107.62
2019-01-15T16:38:08.356Z,98105.94
2019-01-15T16:42:27.309Z,98104.44
2019-01-15T16:47:03.818Z,98115.48
2019-01-15T16:51:22.464Z,98108.06
2019-01-15T16:55:55.355Z,98106.56
2019-01-15T17:00:19.143Z,98109.22
2019-01-15T17:04:42.212Z,98110.44
2019-01-15T17:09:11.320Z,98115.06
2019-01-15T17:13:34.115Z,98105.75
2019-01-15T17:18:03.834Z,98103.61
2019-01-15T17:22:26.875Z,98099.52
2019-01-15T17:26:47.091Z,98100.14
2019-01-15T17:31:19.676Z,98094.28
2019-01-15T17:35:42.649Z,98099.02
2019-01-15T17:40:01.200Z,98097.98
2019-01-15T17:44:16.179Z,98103.44
2019-01-15T17:48:39.146Z,98109.74
2019-01-15T17:52:58.014Z,98107.78
2019-01-15T17:57:24.160Z,98108.12
2019-01-15T18:01:47.384Z,98109.71
2019-01-15T18:06:12.854Z,98107.11
2019-01-15T18:10:32.955Z,98112.58
2019-01-15T18:15:11.177Z,98108.75
2019-01-15T18:19:36.717Z,98117.20
2019-01-15T18:24:05.301Z,98125.18
2019-01-15T18:28:31.438Z,98120.44
2019-01-15T18:32:51.759Z,98122.20
2019-01-15T18:37:27.357Z,98116.53
2019-01-15T18:42:03.186Z,98125.81
2019-01-15T18:46:23.277Z,98133.42
2019-01-15T18:51:01.707Z,98128.21
2019-01-15T18:55:28.975Z,98132.25
2019-01-15T18:59:49.076Z,98139.14
2019-01-15T19:04:08.046Z,98148.77
2019-01-15T19:08:23.481Z,98156.58
2019-01-15T19:12:45.993Z,98166.91
2019-01-15T19:17:12.441Z,98160.48
2019-01-15T19:21:30.807Z,98164.69
2019-01-15T19:26:00.121Z,98169.31
2019-01-15T19:30:27.791Z,98163.27
2019-01-15T19:35:04.177Z,98173.94
2019-01-15T19:39:24.478Z,98172.17
2019-01-15T19:43:50.517Z,98181.20
2019-01-15T19:48:09.081Z,98172.17
2019-01-15T19:52:28.055Z,98186.76
2019-01-15T19:56:48.465Z,98187.13
2019-01-15T20:01:17.990Z,98183.69
2019-01-15T20:05:36.856Z,98187.97
2019-01-15T20:09:53.264Z,98190.00
2019-01-15T20:14:23.803Z,98202.09
2019-01-15T20:18:42.678Z,98204.95
2019-01-15T20:23:12.813Z,98202.81
2019-01-15T20:27:35.635Z,98209.04
2019-01-15T20:32:01.817Z,98215.80
2019-01-15T20:36:13.517Z,98213.28
2019-01-15T20:40:51.947Z,98220.06
2019-01-15T20:45:29.964Z,98224.26
2019-01-15T20:49:49.967Z,98228.77
2019-01-15T20:54:08.529Z,98232.13
2019-01-15T20:58:27.089Z,98239.10
2019-01-15T21:02:46.380Z,98235.92
2019-01-15T21:07:09.235Z,98237.13
2019-01-15T21:11:27.861Z,98234.53
2019-01-15T21:15:39.503Z,98245.67
2019-01-15T21:20:02.797Z,98248.48
2019-01-15T21:24:25.947Z,98250.94
2019-01-15T21:28:45.132Z,98248.45
2019-01-15T21:33:06.075Z,98252.23
2019-01-15T21:37:41.395Z,98253.28
2019-01-15T21:42:07.130Z,98262.11
2019-01-15T21:46:30.121Z,98253.25
2019-01-15T21:50:50.197Z,98257.04
2019-01-15T21:55:16.253Z,98260.14
2019-01-15T21:59:42.691Z,98259.09
2019-01-15T22:03:56.741Z,98268.85
2019-01-15T22:08:31.584Z,98276.76
2019-01-15T22:13:00.178Z,98282.17
2019-01-15T22:17:13.316Z,98284.48
2019-01-15T22:21:33.825Z,98296.30
2019-01-15T22:26:06.009Z,98288.86
2019-01-15T22:30:33.176Z,98294.34
2019-01-15T22:34:51.965Z,98303.92
2019-01-15T22:39:12.148Z,98303.84
2019-01-15T22:43:23.133Z,98305.60
2019-01-15T22:47:42.007Z,98300.39
2019-01-15T22:52:20.226Z,98306.44
2019-01-15T22:56:40.730Z,98312.00
2019-01-15T23:01:09.433Z,98305.02
2019-01-15T23:05:29.536Z,98305.48
2019-01-15T23:09:52.281Z,98306.44
2019-01-15T23:14:18.131Z,98306.16
2019-01-15T23:18:37.020Z,98305.43
2019-01-15T23:23:09.189Z,98321.70
2019-01-15T23:27:44.957Z,98318.84
2019-01-15T23:32:05.331Z,98324.34
2019-01-15T23:36:30.750Z,98327.20
2019-01-15T23:40:44.632Z,98334.68
2019-01-15T23:45:10.577Z,98347.13
2019-01-15T23:49:45.949Z,98345.45
2019-01-15T23:54:21.279Z,98353.27
2019-01-15T23:58:41.383Z,98354.23
